createdAt,value
2022-12-03T00:00:23.532Z,103314.00
2022-12-03T00:02:52.255Z,103325.00
2022-12-03T00:05:23.974Z,103322.00
2022-12-03T00:07:52.633Z,103313.00
2022-12-03T00:10:21.562Z,103316.00
2022-12-03T00:12:51.631Z,103311.00
2022-12-03T00:15:20.855Z,103312.00
2022-12-03T00:17:49.559Z,103303.00
2022-12-03T00:20:22.546Z,103304.00
2022-12-03T00:22:51.473Z,103310.00
2022-12-03T00:25:20.168Z,103314.00
2022-12-03T00:27:50.204Z,103309.00
2022-12-03T00:30:19.050Z,103315.00
2022-12-03T00:32:47.711Z,103302.00
2022-12-03T00:35:16.556Z,103300.00
2022-12-03T00:37:45.152Z,103306.00
2022-12-03T00:40:14.548Z,103299.00
2022-12-03T00:42:43.228Z,103312.00
2022-12-03T00:45:13.690Z,103308.00
2022-12-03T00:47:42.327Z,103302.00
2022-12-03T00:50:12.379Z,103303.00
2022-12-03T00:52:41.024Z,103311.00
2022-12-03T00:55:10.796Z,103309.00
2022-12-03T00:57:39.474Z,103304.00
2022-12-03T01:00:10.335Z,103299.00
2022-12-03T01:02:40.525Z,103303.00
2022-12-03T01:05:10.372Z,103298.00
2022-12-03T01:07:39.129Z,103293.00
2022-12-03T01:10:09.386Z,103292.00
2022-12-03T01:12:38.081Z,103298.00
2022-12-03T01:15:08.667Z,103288.00
2022-12-03T01:17:37.485Z,103279.00
2022-12-03T01:20:10.219Z,103278.00
2022-12-03T01:22:39.035Z,103283.00
2022-12-03T01:25:08.646Z,103285.00
2022-12-03T01:27:37.307Z,103280.00
2022-12-03T01:30:08.149Z,103283.00
2022-12-03T01:32:35.825Z,103275.00
2022-12-03T01:35:04.608Z,103276.00
2022-12-03T01:37:34.994Z,103274.00
2022-12-03T01:40:03.900Z,103266.00
2022-12-03T01:42:37.904Z,103264.00
2022-12-03T01:45:08.405Z,103265.00
2022-12-03T01:47:39.308Z,103267.00
2022-12-03T01:50:18.946Z,103265.00
2022-12-03T01:52:49.199Z,103264.00
2022-12-03T01:55:28.160Z,103265.00
2022-12-03T01:58:00.713Z,103259.00
2022-12-03T02:00:30.824Z,103260.00
2022-12-03T02:03:03.455Z,103257.00
2022-12-03T02:05:34.352Z,103257.00
2022-12-03T02:08:33.870Z,103253.00
2022-12-03T02:11:07.794Z,103259.00
2022-12-03T02:14:05.114Z,103253.00
2022-12-03T02:16:36.267Z,103244.00
2022-12-03T02:19:14.646Z,103237.00
2022-12-03T02:21:58.958Z,103244.00
2022-12-03T02:24:42.957Z,103248.00
2022-12-03T02:27:13.372Z,103243.00
2022-12-03T02:29:42.188Z,103243.00
2022-12-03T02:32:11.163Z,103251.00
2022-12-03T02:34:43.586Z,103257.00
2022-12-03T02:37:18.079Z,103251.00
2022-12-03T02:39:53.826Z,103251.00
2022-12-03T02:42:36.581Z,103251.00
2022-12-03T02:45:11.602Z,103250.00
2022-12-03T02:47:45.211Z,103250.00
2022-12-03T02:50:20.878Z,103248.00
2022-12-03T02:52:50.608Z,103245.00
2022-12-03T02:55:19.968Z,103245.00
2022-12-03T02:57:52.722Z,103241.00
2022-12-03T03:00:23.674Z,103243.00
2022-12-03T03:02:52.536Z,103236.00
2022-12-03T03:05:25.206Z,103241.00
2022-12-03T03:07:54.059Z,103229.00
2022-12-03T03:10:25.255Z,103235.00
2022-12-03T03:12:57.319Z,103216.00
2022-12-03T03:15:26.608Z,103223.00
2022-12-03T03:17:55.888Z,103228.00
2022-12-03T03:20:25.271Z,103228.00
2022-12-03T03:22:53.916Z,103223.00
2022-12-03T03:25:24.760Z,103227.00
2022-12-03T03:27:55.678Z,103225.00
2022-12-03T03:30:24.387Z,103232.00
2022-12-03T03:32:52.982Z,103225.00
2022-12-03T03:35:21.916Z,103228.00
2022-12-03T03:37:50.573Z,103239.00
2022-12-03T03:40:19.647Z,103238.00
2022-12-03T03:42:48.845Z,103229.00
2022-12-03T03:45:25.717Z,103227.00
2022-12-03T03:48:00.136Z,103232.00
2022-12-03T03:50:31.298Z,103232.00
2022-12-03T03:53:02.684Z,103223.00
2022-12-03T03:55:32.459Z,103229.00
2022-12-03T03:58:01.529Z,103216.00
2022-12-03T04:00:32.622Z,103227.00
2022-12-03T04:03:01.371Z,103223.00
2022-12-03T04:05:30.152Z,103227.00
2022-12-03T04:07:59.641Z,103225.00
2022-12-03T04:10:45.698Z,103220.00
2022-12-03T04:13:14.376Z,103223.00
2022-12-03T04:15:44.509Z,103223.00
2022-12-03T04:18:30.773Z,103227.00
2022-12-03T04:21:13.199Z,103226.00
2022-12-03T04:23:42.327Z,103226.00
2022-12-03T04:26:28.447Z,103222.00
2022-12-03T04:28:57.211Z,103223.00
2022-12-03T04:31:44.656Z,103212.00
2022-12-03T04:34:30.517Z,103222.00
2022-12-03T04:36:59.347Z,103223.00
2022-12-03T04:39:28.061Z,103230.00
2022-12-03T04:41:56.707Z,103223.00
2022-12-03T04:44:37.409Z,103226.00
2022-12-03T04:47:11.871Z,103226.00
2022-12-03T04:49:43.276Z,103225.00
2022-12-03T04:52:12.792Z,103228.00
2022-12-03T04:54:42.184Z,103217.00
2022-12-03T04:57:11.950Z,103218.00
2022-12-03T04:59:40.874Z,103214.00
2022-12-03T05:02:11.152Z,103214.00
2022-12-03T05:04:39.803Z,103218.00
2022-12-03T05:07:08.422Z,103214.00
2022-12-03T05:09:37.077Z,103210.00
2022-12-03T05:12:06.621Z,103215.00
2022-12-03T05:14:35.196Z,103223.00
2022-12-03T05:17:03.877Z,103215.00
2022-12-03T05:19:47.847Z,103218.00
2022-12-03T05:22:16.488Z,103212.00
2022-12-03T05:24:45.093Z,103206.00
2022-12-03T05:27:15.004Z,103211.00
2022-12-03T05:29:45.243Z,103216.00
2022-12-03T05:32:13.885Z,103216.00
2022-12-03T05:34:43.887Z,103223.00
2022-12-03T05:37:12.579Z,103217.00
2022-12-03T05:39:41.165Z,103223.00
2022-12-03T05:42:28.565Z,103223.00
2022-12-03T05:44:58.051Z,103215.00
2022-12-03T05:47:26.733Z,103219.00
2022-12-03T05:49:56.736Z,103220.00
2022-12-03T05:52:25.399Z,103217.00
2022-12-03T05:54:54.307Z,103217.00
2022-12-03T05:57:23.225Z,103211.00
2022-12-03T05:59:51.989Z,103203.00
2022-12-03T06:02:20.723Z,103216.00
2022-12-03T06:04:49.727Z,103215.00
2022-12-03T06:07:19.900Z,103223.00
2022-12-03T06:09:48.647Z,103215.00
2022-12-03T06:12:17.273Z,103213.00
2022-12-03T06:14:46.241Z,103223.00
2022-12-03T06:17:15.042Z,103216.00
2022-12-03T06:19:43.632Z,103221.00
2022-12-03T06:22:13.905Z,103216.00
2022-12-03T06:24:43.975Z,103220.00
2022-12-03T06:27:12.964Z,103221.00
2022-12-03T06:29:41.693Z,103218.00
2022-12-03T06:32:10.337Z,103215.00
2022-12-03T06:34:38.939Z,103214.00
2022-12-03T06:37:07.581Z,103212.00
2022-12-03T06:39:36.356Z,103214.00
2022-12-03T06:42:06.749Z,103217.00
2022-12-03T06:44:35.559Z,103204.00
2022-12-03T06:47:05.070Z,103224.00
2022-12-03T06:49:33.886Z,103206.00
2022-12-03T06:52:02.887Z,103214.00
2022-12-03T06:54:31.572Z,103218.00
2022-12-03T06:57:00.382Z,103214.00
2022-12-03T06:59:34.123Z,103220.00
2022-12-03T07:02:02.969Z,103213.00
2022-12-03T07:04:31.784Z,103221.00
2022-12-03T07:07:00.554Z,103208.00
2022-12-03T07:09:29.217Z,103213.00
2022-12-03T07:11:57.882Z,103209.00
2022-12-03T07:14:26.493Z,103206.00
2022-12-03T07:16:56.525Z,103209.00
2022-12-03T07:19:30.718Z,103217.00
2022-12-03T07:22:01.113Z,103211.00
2022-12-03T07:24:29.952Z,103221.00
2022-12-03T07:26:58.824Z,103219.00
2022-12-03T07:29:27.512Z,103216.00
2022-12-03T07:31:57.622Z,103221.00
2022-12-03T07:34:26.352Z,103220.00
2022-12-03T07:36:55.053Z,103223.00
2022-12-03T07:39:28.533Z,103216.00
2022-12-03T07:41:57.354Z,103205.00
2022-12-03T07:44:26.472Z,103221.00
2022-12-03T07:46:56.687Z,103224.00
2022-12-03T07:49:29.626Z,103220.00
2022-12-03T07:51:58.325Z,103220.00
2022-12-03T07:54:27.289Z,103223.00
2022-12-03T07:57:01.213Z,103218.00
2022-12-03T07:59:31.184Z,103220.00
2022-12-03T08:02:02.393Z,103213.00
2022-12-03T08:04:31.095Z,103218.00
2022-12-03T08:07:01.577Z,103213.00
2022-12-03T08:09:31.469Z,103214.00
2022-12-03T08:12:04.141Z,103218.00
2022-12-03T08:14:32.793Z,103207.00
2022-12-03T08:17:03.115Z,103203.00
2022-12-03T08:19:31.806Z,103203.00
2022-12-03T08:22:01.787Z,103193.00
2022-12-03T08:24:32.195Z,103199.00
2022-12-03T08:27:01.957Z,103202.00
2022-12-03T08:29:33.130Z,103202.00
2022-12-03T08:32:03.231Z,103202.00
2022-12-03T08:34:41.105Z,103206.00
2022-12-03T08:37:20.049Z,103211.00
2022-12-03T08:39:50.753Z,103214.00
2022-12-03T08:42:42.498Z,103205.00
2022-12-03T08:45:41.459Z,103208.00
2022-12-03T08:48:28.931Z,103215.00
2022-12-03T08:51:01.908Z,103214.00
2022-12-03T08:53:35.063Z,103201.00
2022-12-03T08:56:15.427Z,103204.00
2022-12-03T08:58:45.832Z,103208.00
2022-12-03T09:01:30.830Z,103205.00
2022-12-03T09:04:22.899Z,103208.00
2022-12-03T09:06:53.002Z,103202.00
2022-12-03T09:09:22.760Z,103204.00
2022-12-03T09:11:51.730Z,103213.00
2022-12-03T09:14:22.803Z,103216.00
2022-12-03T09:16:55.785Z,103199.00
2022-12-03T09:19:31.156Z,103206.00
2022-12-03T09:22:00.100Z,103215.00
2022-12-03T09:24:28.799Z,103217.00
2022-12-03T09:26:57.479Z,103203.00
2022-12-03T09:29:29.262Z,103208.00
2022-12-03T09:31:57.998Z,103206.00
2022-12-03T09:34:28.121Z,103205.00
2022-12-03T09:36:56.733Z,103203.00
2022-12-03T09:39:25.376Z,103206.00
2022-12-03T09:41:54.477Z,103206.00
2022-12-03T09:44:23.254Z,103219.00
2022-12-03T09:46:52.050Z,103209.00
2022-12-03T09:49:21.226Z,103207.00
2022-12-03T09:51:51.325Z,103213.00
2022-12-03T09:54:25.928Z,103210.00
2022-12-03T09:56:56.840Z,103210.00
2022-12-03T09:59:33.265Z,103211.00
2022-12-03T10:02:02.784Z,103208.00
2022-12-03T10:04:31.749Z,103210.00
2022-12-03T10:07:02.499Z,103212.00
2022-12-03T10:09:32.122Z,103208.00
2022-12-03T10:12:01.470Z,103208.00
2022-12-03T10:14:31.159Z,103208.00
2022-12-03T10:17:00.132Z,103206.00
2022-12-03T10:19:34.050Z,103213.00
2022-12-03T10:22:04.310Z,103204.00
2022-12-03T10:24:35.415Z,103210.00
2022-12-03T10:27:21.496Z,103207.00
2022-12-03T10:29:57.294Z,103213.00
2022-12-03T10:32:28.389Z,103208.00
2022-12-03T10:35:11.415Z,103214.00
2022-12-03T10:38:00.266Z,103212.00
2022-12-03T10:40:31.700Z,103214.00
2022-12-03T10:43:22.505Z,103212.00
2022-12-03T10:45:52.932Z,103211.00
2022-12-03T10:48:26.382Z,103213.00
2022-12-03T10:50:57.833Z,103212.00
2022-12-03T10:53:32.055Z,103215.00
2022-12-03T10:56:05.626Z,103212.00
2022-12-03T10:58:38.394Z,103215.00
2022-12-03T11:01:17.430Z,103207.00
2022-12-03T11:03:51.868Z,103204.00
2022-12-03T11:06:22.524Z,103210.00
2022-12-03T11:09:00.361Z,103203.00
2022-12-03T11:11:32.643Z,103202.00
2022-12-03T11:14:04.068Z,103209.00
2022-12-03T11:17:12.054Z,103207.00
2022-12-03T11:19:50.354Z,103205.00
2022-12-03T11:22:41.231Z,103206.00
2022-12-03T11:25:51.517Z,103196.00
2022-12-03T11:28:55.180Z,103205.00
2022-12-03T11:31:42.679Z,103196.00
2022-12-03T11:34:51.076Z,103194.00
2022-12-03T11:37:26.171Z,103196.00
2022-12-03T11:40:33.577Z,103197.00
2022-12-03T11:43:11.892Z,103207.00
2022-12-03T11:45:42.506Z,103200.00
2022-12-03T11:48:16.933Z,103204.00
2022-12-03T11:50:52.251Z,103204.00
2022-12-03T11:53:24.976Z,103202.00
2022-12-03T11:56:06.703Z,103197.00
2022-12-03T11:58:39.921Z,103194.00
2022-12-03T12:01:10.305Z,103197.00
2022-12-03T12:03:47.964Z,103187.00
2022-12-03T12:06:19.562Z,103201.00
2022-12-03T12:08:58.932Z,103195.00
2022-12-03T12:11:30.690Z,103201.00
2022-12-03T12:14:03.734Z,103198.00
2022-12-03T12:16:50.759Z,103196.00
2022-12-03T12:19:39.835Z,103193.00
2022-12-03T12:22:32.899Z,103195.00
2022-12-03T12:25:03.149Z,103192.00
2022-12-03T12:27:37.622Z,103190.00
2022-12-03T12:30:15.563Z,103194.00
2022-12-03T12:32:48.216Z,103194.00
2022-12-03T12:35:21.407Z,103184.00
2022-12-03T12:37:59.068Z,103191.00
2022-12-03T12:40:32.070Z,103188.00
2022-12-03T12:43:08.454Z,103178.00
2022-12-03T12:45:44.734Z,103189.00
2022-12-03T12:48:26.284Z,103186.00
2022-12-03T12:51:10.117Z,103188.00
2022-12-03T12:53:42.640Z,103181.00
2022-12-03T12:56:24.543Z,103186.00
2022-12-03T12:58:54.474Z,103191.00
2022-12-03T13:01:32.750Z,103194.00
2022-12-03T13:04:02.965Z,103195.00
2022-12-03T13:06:35.796Z,103207.00
2022-12-03T13:09:04.620Z,103204.00
2022-12-03T13:11:41.522Z,103192.00
2022-12-03T13:14:19.397Z,103206.00
2022-12-03T13:16:51.822Z,103198.00
2022-12-03T13:19:26.540Z,103208.00
2022-12-03T13:21:57.395Z,103202.00
2022-12-03T13:24:35.284Z,103209.00
2022-12-03T13:27:23.019Z,103205.00
2022-12-03T13:29:57.579Z,103209.00
2022-12-03T13:32:32.508Z,103200.00
2022-12-03T13:35:05.965Z,103201.00
2022-12-03T13:37:35.297Z,103197.00
2022-12-03T13:40:22.504Z,103202.00
2022-12-03T13:42:52.643Z,103206.00
2022-12-03T13:45:36.506Z,103198.00
2022-12-03T13:48:22.583Z,103201.00
2022-12-03T13:50:52.770Z,103203.00
2022-12-03T13:53:25.123Z,103205.00
2022-12-03T13:55:59.108Z,103212.00
2022-12-03T13:58:27.975Z,103200.00
2022-12-03T14:00:56.968Z,103199.00
2022-12-03T14:03:27.586Z,103200.00
2022-12-03T14:05:58.051Z,103208.00
2022-12-03T14:08:26.759Z,103199.00
2022-12-03T14:11:00.196Z,103203.00
2022-12-03T14:13:29.640Z,103202.00
2022-12-03T14:15:58.344Z,103199.00
2022-12-03T14:18:28.427Z,103206.00
2022-12-03T14:20:57.069Z,103209.00
2022-12-03T14:23:25.892Z,103200.00
2022-12-03T14:25:54.476Z,103203.00
2022-12-03T14:28:23.166Z,103193.00
2022-12-03T14:30:51.779Z,103195.00
2022-12-03T14:33:21.510Z,103187.00
2022-12-03T14:35:53.469Z,103195.00
2022-12-03T14:38:22.176Z,103199.00
2022-12-03T14:40:50.779Z,103183.00
2022-12-03T14:43:19.354Z,103186.00
2022-12-03T14:45:48.015Z,103188.00
2022-12-03T14:48:16.632Z,103192.00
2022-12-03T14:50:45.493Z,103182.00
2022-12-03T14:53:15.541Z,103188.00
2022-12-03T14:55:45.631Z,103195.00
2022-12-03T14:58:14.246Z,103185.00
2022-12-03T15:00:42.856Z,103187.00
2022-12-03T15:03:11.410Z,103182.00
2022-12-03T15:05:41.155Z,103182.00
2022-12-03T15:08:10.174Z,103181.00
2022-12-03T15:10:40.168Z,103174.00
2022-12-03T15:13:08.793Z,103179.00
2022-12-03T15:15:37.442Z,103188.00
2022-12-03T15:18:06.602Z,103173.00
2022-12-03T15:20:35.705Z,103180.00
2022-12-03T15:23:04.441Z,103173.00
2022-12-03T15:25:34.339Z,103168.00
2022-12-03T15:28:05.567Z,103178.00
2022-12-03T15:30:35.522Z,103165.00
2022-12-03T15:33:04.639Z,103182.00
2022-12-03T15:35:33.811Z,103173.00
2022-12-03T15:38:03.090Z,103173.00
2022-12-03T15:40:33.055Z,103170.00
2022-12-03T15:43:03.210Z,103174.00
2022-12-03T15:45:31.950Z,103174.00
2022-12-03T15:48:00.763Z,103170.00
2022-12-03T15:50:29.736Z,103178.00
2022-12-03T15:52:58.523Z,103187.00
2022-12-03T15:55:27.086Z,103179.00
2022-12-03T15:57:55.783Z,103175.00
2022-12-03T16:00:26.017Z,103177.00
2022-12-03T16:02:54.701Z,103178.00
2022-12-03T16:05:23.303Z,103184.00
2022-12-03T16:07:51.957Z,103188.00
2022-12-03T16:10:21.608Z,103190.00
2022-12-03T16:12:50.327Z,103184.00
2022-12-03T16:15:22.243Z,103181.00
2022-12-03T16:17:56.760Z,103179.00
2022-12-03T16:20:25.502Z,103176.00
2022-12-03T16:22:54.129Z,103170.00
2022-12-03T16:25:22.846Z,103174.00
2022-12-03T16:27:51.498Z,103170.00
2022-12-03T16:30:20.487Z,103174.00
2022-12-03T16:32:49.201Z,103181.00
2022-12-03T16:35:19.456Z,103175.00
2022-12-03T16:37:48.099Z,103171.00
2022-12-03T16:40:16.998Z,103183.00
2022-12-03T16:42:45.776Z,103180.00
2022-12-03T16:45:33.826Z,103188.00
2022-12-03T16:48:03.408Z,103177.00
2022-12-03T16:50:33.503Z,103178.00
2022-12-03T16:53:02.130Z,103191.00
2022-12-03T16:55:32.125Z,103188.00
2022-12-03T16:58:00.809Z,103197.00
2022-12-03T17:00:29.577Z,103191.00
2022-12-03T17:02:58.237Z,103191.00
2022-12-03T17:05:26.947Z,103192.00
2022-12-03T17:07:57.099Z,103188.00
2022-12-03T17:10:25.940Z,103184.00
2022-12-03T17:13:09.276Z,103188.00
2022-12-03T17:15:38.932Z,103192.00
2022-12-03T17:18:08.671Z,103193.00
2022-12-03T17:20:38.776Z,103190.00
2022-12-03T17:23:12.197Z,103193.00
2022-12-03T17:25:40.804Z,103198.00
2022-12-03T17:28:09.456Z,103189.00
2022-12-03T17:30:41.423Z,103198.00
2022-12-03T17:33:10.168Z,103199.00
2022-12-03T17:35:38.781Z,103198.00
2022-12-03T17:38:09.196Z,103186.00
2022-12-03T17:40:37.828Z,103186.00
2022-12-03T17:43:06.532Z,103190.00
2022-12-03T17:45:36.826Z,103200.00
2022-12-03T17:48:05.922Z,103197.00
2022-12-03T17:50:34.607Z,103192.00
2022-12-03T17:53:05.465Z,103184.00
2022-12-03T17:55:41.287Z,103183.00
2022-12-03T17:58:14.987Z,103194.00
2022-12-03T18:00:43.985Z,103210.00
2022-12-03T18:03:12.799Z,103206.00
2022-12-03T18:05:41.742Z,103195.00
2022-12-03T18:08:10.868Z,103204.00
2022-12-03T18:10:41.342Z,103199.00
2022-12-03T18:13:10.045Z,103204.00
2022-12-03T18:15:39.126Z,103209.00
2022-12-03T18:18:07.941Z,103202.00
2022-12-03T18:20:37.055Z,103212.00
2022-12-03T18:23:06.658Z,103204.00
2022-12-03T18:25:36.554Z,103202.00
2022-12-03T18:28:06.868Z,103208.00
2022-12-03T18:30:35.617Z,103206.00
2022-12-03T18:33:05.422Z,103209.00
2022-12-03T18:35:34.104Z,103210.00
2022-12-03T18:38:03.084Z,103205.00
2022-12-03T18:40:31.740Z,103208.00
2022-12-03T18:43:43.377Z,103213.00
2022-12-03T18:46:45.056Z,103216.00
2022-12-03T18:49:07.565Z,103202.00
2022-12-03T18:51:36.330Z,103204.00
2022-12-03T18:54:05.334Z,103203.00
2022-12-03T18:56:34.060Z,103205.00
2022-12-03T18:59:02.783Z,103209.00
2022-12-03T19:01:33.710Z,103198.00
2022-12-03T19:04:02.585Z,103194.00
2022-12-03T19:06:31.274Z,103201.00
2022-12-03T19:08:59.928Z,103195.00
2022-12-03T19:11:28.597Z,103199.00
2022-12-03T19:13:59.060Z,103205.00
2022-12-03T19:16:27.709Z,103187.00
2022-12-03T19:18:57.942Z,103193.00
2022-12-03T19:21:32.117Z,103198.00
2022-12-03T19:26:54.675Z,103200.00
2022-12-03T19:29:24.444Z,103194.00
2022-12-03T19:31:53.526Z,103200.00
2022-12-03T19:34:23.802Z,103194.00
2022-12-03T19:36:52.439Z,103201.00
2022-12-03T19:39:21.033Z,103205.00
2022-12-03T19:41:49.713Z,103201.00
2022-12-03T19:44:19.961Z,103205.00
2022-12-03T19:46:51.045Z,103206.00
2022-12-03T19:49:21.313Z,103205.00
2022-12-03T19:51:52.105Z,103207.00
2022-12-03T19:54:20.848Z,103210.00
2022-12-03T19:56:49.415Z,103208.00
2022-12-03T19:59:18.067Z,103218.00
2022-12-03T20:01:46.796Z,103212.00
2022-12-03T20:04:15.603Z,103207.00
2022-12-03T20:06:45.459Z,103207.00
2022-12-03T20:09:18.026Z,103211.00
2022-12-03T20:12:07.163Z,103216.00
2022-12-03T20:14:35.776Z,103207.00
2022-12-03T20:17:06.465Z,103213.00
2022-12-03T20:19:37.324Z,103214.00
2022-12-03T20:22:06.038Z,103214.00
2022-12-03T20:24:38.359Z,103212.00
2022-12-03T20:27:07.072Z,103211.00
2022-12-03T20:29:35.701Z,103218.00
2022-12-03T20:32:05.093Z,103219.00
2022-12-03T20:34:35.942Z,103217.00
2022-12-03T20:37:04.599Z,103214.00
2022-12-03T20:39:33.453Z,103219.00
2022-12-03T20:42:03.397Z,103210.00
2022-12-03T20:44:32.017Z,103206.00
2022-12-03T20:47:00.567Z,103202.00
2022-12-03T20:49:30.186Z,103209.00
2022-12-03T20:52:02.845Z,103209.00
2022-12-03T20:54:33.229Z,103219.00
2022-12-03T20:57:03.293Z,103219.00
2022-12-03T20:59:32.897Z,103215.00
2022-12-03T21:02:01.618Z,103223.00
2022-12-03T21:04:30.375Z,103216.00
2022-12-03T21:07:00.169Z,103219.00
2022-12-03T21:09:28.847Z,103212.00
2022-12-03T21:11:57.513Z,103220.00
2022-12-03T21:14:27.682Z,103223.00
2022-12-03T21:17:11.940Z,103223.00
2022-12-03T21:19:40.759Z,103225.00
2022-12-03T21:22:09.455Z,103226.00
2022-12-03T21:24:39.245Z,103240.00
2022-12-03T21:27:08.868Z,103230.00
2022-12-03T21:29:39.468Z,103221.00
2022-12-03T21:32:08.127Z,103222.00
2022-12-03T21:34:36.807Z,103214.00
2022-12-03T21:37:05.907Z,103217.00
2022-12-03T21:39:34.664Z,103218.00
2022-12-03T21:42:18.630Z,103215.00
2022-12-03T21:44:53.625Z,103215.00
2022-12-03T21:47:22.455Z,103216.00
2022-12-03T21:49:51.120Z,103214.00
2022-12-03T21:52:19.821Z,103212.00
2022-12-03T21:54:48.641Z,103222.00
2022-12-03T21:57:17.214Z,103219.00
2022-12-03T21:59:46.008Z,103228.00
2022-12-03T22:02:16.199Z,103213.00
2022-12-03T22:04:45.248Z,103228.00
2022-12-03T22:07:13.851Z,103230.00
2022-12-03T22:09:43.859Z,103214.00
2022-12-03T22:12:12.586Z,103215.00
2022-12-03T22:14:41.270Z,103218.00
2022-12-03T22:17:09.972Z,103217.00
2022-12-03T22:19:40.253Z,103218.00
2022-12-03T22:22:08.933Z,103214.00
2022-12-03T22:24:38.700Z,103215.00
2022-12-03T22:27:07.518Z,103221.00
2022-12-03T22:29:36.128Z,103224.00
2022-12-03T22:32:05.098Z,103226.00
2022-12-03T22:34:34.459Z,103221.00
2022-12-03T22:37:04.585Z,103226.00
2022-12-03T22:39:33.378Z,103229.00
2022-12-03T22:42:02.020Z,103228.00
2022-12-03T22:44:30.932Z,103230.00
2022-12-03T22:46:59.540Z,103230.00
2022-12-03T22:49:28.402Z,103235.00
2022-12-03T22:51:57.099Z,103235.00
2022-12-03T22:54:27.147Z,103220.00
2022-12-03T22:56:55.755Z,103232.00
2022-12-03T22:59:24.420Z,103221.00
2022-12-03T23:01:53.104Z,103218.00
2022-12-03T23:04:21.878Z,103216.00
2022-12-03T23:06:50.650Z,103222.00
2022-12-03T23:09:19.301Z,103229.00
2022-12-03T23:11:49.451Z,103235.00
2022-12-03T23:14:18.042Z,103230.00
2022-12-03T23:16:46.660Z,103231.00
2022-12-03T23:19:15.403Z,103223.00
2022-12-03T23:21:44.067Z,103229.00
2022-12-03T23:24:12.775Z,103235.00
2022-12-03T23:26:41.426Z,103240.00
2022-12-03T23:29:11.457Z,103233.00
2022-12-03T23:31:40.241Z,103231.00
2022-12-03T23:34:09.100Z,103240.00
2022-12-03T23:36:38.049Z,103244.00
2022-12-03T23:39:07.017Z,103238.00
2022-12-03T23:41:36.195Z,103242.00
2022-12-03T23:44:04.919Z,103253.00
2022-12-03T23:46:35.491Z,103249.00
2022-12-03T23:49:04.264Z,103244.00
2022-12-03T23:51:33.096Z,103236.00
2022-12-03T23:54:01.945Z,103241.00
2022-12-03T23:56:32.537Z,103229.00
2022-12-03T23:59:01.140Z,103229.00
